createdAt,value
2022-08-10T00:01:52.596Z,14.87
2022-08-10T00:04:23.467Z,14.85
2022-08-10T00:06:54.658Z,14.83
2022-08-10T00:09:24.196Z,14.81
2022-08-10T00:11:52.390Z,14.80
2022-08-10T00:14:20.663Z,14.79
2022-08-10T00:16:48.907Z,14.75
2022-08-10T00:19:18.332Z,14.72
2022-08-10T00:21:47.675Z,14.70
2022-08-10T00:24:16.158Z,14.67
2022-08-10T00:27:57.914Z,14.66
2022-08-10T00:29:38.241Z,14.64
2022-08-10T00:32:06.566Z,14.64
2022-08-10T00:34:35.000Z,14.62
2022-08-10T00:37:03.126Z,14.62
2022-08-10T00:39:35.951Z,14.61
2022-08-10T00:42:09.117Z,14.60
2022-08-10T00:44:39.344Z,14.58
2022-08-10T00:47:10.392Z,14.57
2022-08-10T00:49:57.100Z,14.55
2022-08-10T00:52:28.071Z,14.53
2022-08-10T00:54:57.121Z,14.52
2022-08-10T00:57:28.543Z,14.50
2022-08-10T00:59:57.839Z,14.48
2022-08-10T01:02:30.313Z,14.47
2022-08-10T01:05:02.246Z,14.46
2022-08-10T01:07:49.439Z,14.46
2022-08-10T01:10:36.386Z,14.45
2022-08-10T01:13:31.869Z,14.44
2022-08-10T01:16:19.678Z,14.43
2022-08-10T01:19:00.816Z,14.44
2022-08-10T01:21:59.919Z,14.45
2022-08-10T01:24:47.653Z,14.43
2022-08-10T01:27:53.889Z,14.42
2022-08-10T01:30:24.444Z,14.42
2022-08-10T01:32:58.009Z,14.41
2022-08-10T01:35:46.676Z,14.43
2022-08-10T01:38:19.365Z,14.44
2022-08-10T01:40:52.146Z,14.44
2022-08-10T01:43:21.147Z,14.44
2022-08-10T01:45:55.956Z,14.43
2022-08-10T01:48:38.774Z,14.42
2022-08-10T01:51:22.235Z,14.42
2022-08-10T01:53:53.868Z,14.39
2022-08-10T01:56:24.735Z,14.38
2022-08-10T01:58:57.329Z,14.36
2022-08-10T02:01:39.558Z,14.35
2022-08-10T02:04:11.203Z,14.34
2022-08-10T02:06:43.751Z,14.32
2022-08-10T02:09:15.578Z,14.30
2022-08-10T02:11:55.915Z,14.28
2022-08-10T02:14:54.081Z,14.25
2022-08-10T02:18:00.315Z,14.24
2022-08-10T02:20:24.294Z,14.21
2022-08-10T02:22:59.440Z,14.19
2022-08-10T02:25:40.581Z,14.17
2022-08-10T02:28:29.715Z,14.14
2022-08-10T02:31:06.968Z,14.12
2022-08-10T02:33:56.324Z,14.09
2022-08-10T02:36:34.292Z,14.06
2022-08-10T02:39:05.923Z,14.03
2022-08-10T02:45:14.098Z,14.01
2022-08-10T02:45:24.537Z,13.97
2022-08-10T02:47:52.095Z,13.93
2022-08-10T02:50:28.128Z,13.90
2022-08-10T02:53:54.787Z,13.88
2022-08-10T02:56:35.412Z,13.85
2022-08-10T02:59:17.577Z,13.83
2022-08-10T03:01:49.435Z,13.82
2022-08-10T03:04:57.083Z,13.80
2022-08-10T03:07:15.246Z,13.78
2022-08-10T03:09:46.272Z,13.75
2022-08-10T03:12:37.017Z,13.72
2022-08-10T03:15:04.951Z,13.71
2022-08-10T03:17:33.432Z,13.70
2022-08-10T03:20:33.335Z,13.69
2022-08-10T03:22:52.466Z,13.67
2022-08-10T03:25:24.105Z,13.65
2022-08-10T03:27:53.795Z,13.64
2022-08-10T03:30:31.931Z,13.62
2022-08-10T03:33:05.357Z,13.62
2022-08-10T03:35:34.736Z,13.61
2022-08-10T03:38:03.794Z,13.61
2022-08-10T03:40:45.538Z,13.60
2022-08-10T03:43:20.623Z,13.59
2022-08-10T03:45:55.691Z,13.58
2022-08-10T03:48:32.197Z,13.58
2022-08-10T03:51:13.556Z,13.57
2022-08-10T03:54:05.186Z,13.58
2022-08-10T03:56:32.634Z,13.60
2022-08-10T03:59:02.230Z,13.61
2022-08-10T04:02:43.757Z,13.63
2022-08-10T04:04:24.172Z,13.64
2022-08-10T04:06:56.193Z,13.66
2022-08-10T04:09:53.620Z,13.68
2022-08-10T04:12:21.378Z,13.70
2022-08-10T04:14:52.405Z,13.70
2022-08-10T04:18:01.205Z,13.71
2022-08-10T04:20:29.927Z,13.74
2022-08-10T04:23:09.798Z,13.74
2022-08-10T04:25:40.188Z,13.76
2022-08-10T04:28:10.619Z,13.78
2022-08-10T04:30:40.972Z,13.81
2022-08-10T04:33:11.384Z,13.86
2022-08-10T04:35:40.222Z,13.91
2022-08-10T04:38:09.670Z,13.97
2022-08-10T04:40:38.314Z,14.04
2022-08-10T04:43:12.261Z,14.12
2022-08-10T04:45:50.478Z,14.22
2022-08-10T04:48:43.403Z,14.30
2022-08-10T04:51:18.091Z,14.41
2022-08-10T04:54:04.480Z,14.53
2022-08-10T04:56:38.232Z,14.68
2022-08-10T04:59:11.214Z,14.84
2022-08-10T05:02:29.122Z,15.01
2022-08-10T05:04:35.922Z,15.20
2022-08-10T05:07:09.370Z,15.40
2022-08-10T05:10:01.629Z,15.58
2022-08-10T05:12:27.846Z,15.82
2022-08-10T05:14:56.488Z,16.06
2022-08-10T05:17:24.682Z,16.28
2022-08-10T05:20:01.788Z,16.50
2022-08-10T05:22:36.736Z,16.71
2022-08-10T05:25:07.300Z,16.94
2022-08-10T05:27:35.804Z,17.17
2022-08-10T05:30:05.461Z,17.41
2022-08-10T05:32:59.222Z,17.64
2022-08-10T05:35:23.310Z,17.91
2022-08-10T05:38:12.263Z,18.10
2022-08-10T05:40:46.511Z,18.32
2022-08-10T05:43:21.025Z,18.47
2022-08-10T05:46:18.349Z,18.68
2022-08-10T05:48:59.080Z,18.90
2022-08-10T05:51:30.248Z,19.09
2022-08-10T05:54:04.711Z,19.24
2022-08-10T05:56:54.726Z,19.33
2022-08-10T06:00:33.444Z,19.48
2022-08-10T06:02:35.377Z,19.70
2022-08-10T06:05:10.603Z,19.92
2022-08-10T06:07:48.069Z,20.04
2022-08-10T06:10:29.975Z,20.16
2022-08-10T06:13:30.907Z,20.31
2022-08-10T06:16:09.122Z,20.52
2022-08-10T06:18:37.795Z,20.67
2022-08-10T06:21:09.760Z,20.75
2022-08-10T06:23:39.852Z,20.81
2022-08-10T06:26:13.821Z,20.89
2022-08-10T06:29:07.818Z,20.93
2022-08-10T06:31:47.465Z,20.96
2022-08-10T06:34:33.100Z,21.08
2022-08-10T06:37:06.446Z,21.25
2022-08-10T06:39:36.798Z,21.45
2022-08-10T06:42:18.119Z,21.56
2022-08-10T06:45:28.427Z,21.69
2022-08-10T06:48:06.229Z,21.84
2022-08-10T06:50:56.149Z,21.91
2022-08-10T06:53:53.875Z,22.04
2022-08-10T06:56:37.929Z,22.10
2022-08-10T06:59:34.167Z,22.21
2022-08-10T07:02:18.204Z,22.28
2022-08-10T07:04:56.173Z,22.34
2022-08-10T07:07:28.744Z,22.34
2022-08-10T07:09:58.981Z,22.44
2022-08-10T07:12:27.946Z,22.57
2022-08-10T07:14:58.367Z,22.64
2022-08-10T07:17:32.326Z,22.64
2022-08-10T07:20:04.386Z,22.71
2022-08-10T07:23:04.819Z,22.75
2022-08-10T07:25:27.373Z,22.85
2022-08-10T07:27:59.542Z,22.87
2022-08-10T07:30:38.330Z,22.87
2022-08-10T07:33:08.280Z,22.87
2022-08-10T07:35:43.209Z,22.95
2022-08-10T07:38:18.710Z,23.01
2022-08-10T07:40:48.808Z,23.03
2022-08-10T07:43:19.211Z,23.13
2022-08-10T07:45:48.418Z,23.23
2022-08-10T07:48:23.225Z,23.29
2022-08-10T07:50:55.295Z,23.37
2022-08-10T07:53:27.161Z,23.44
2022-08-10T07:56:05.737Z,23.51
2022-08-10T07:58:52.003Z,23.60
2022-08-10T08:01:24.403Z,23.52
2022-08-10T08:04:05.769Z,23.51
2022-08-10T08:06:42.366Z,23.58
2022-08-10T08:09:11.535Z,23.69
2022-08-10T08:11:44.652Z,23.66
2022-08-10T08:14:16.313Z,23.68
2022-08-10T08:16:48.208Z,23.79
2022-08-10T08:19:37.235Z,23.79
2022-08-10T08:24:07.517Z,23.86
2022-08-10T08:24:57.566Z,23.87
2022-08-10T08:27:28.614Z,23.92
2022-08-10T08:29:58.223Z,23.93
2022-08-10T08:32:30.305Z,23.95
2022-08-10T08:35:03.532Z,23.89
2022-08-10T08:38:29.976Z,23.78
2022-08-10T08:40:29.896Z,23.70
2022-08-10T08:43:27.308Z,23.68
2022-08-10T08:46:18.531Z,23.62
2022-08-10T08:49:04.668Z,23.61
2022-08-10T08:52:07.203Z,23.62
2022-08-10T08:55:50.160Z,23.58
2022-08-10T08:58:30.758Z,23.56
2022-08-10T09:01:38.277Z,23.60
2022-08-10T09:04:31.292Z,23.63
2022-08-10T09:08:00.433Z,23.78
2022-08-10T09:10:41.986Z,23.88
2022-08-10T09:13:32.245Z,23.98
2022-08-10T09:16:06.294Z,24.05
2022-08-10T09:18:49.637Z,24.12
2022-08-10T09:21:29.701Z,24.20
2022-08-10T09:24:06.297Z,24.16
2022-08-10T09:26:49.899Z,24.19
2022-08-10T09:29:31.274Z,24.17
2022-08-10T09:36:19.687Z,24.01
2022-08-10T09:36:22.444Z,23.88
2022-08-10T09:38:22.100Z,23.87
2022-08-10T09:41:03.988Z,23.90
2022-08-10T09:43:44.144Z,23.82
2022-08-10T09:46:33.465Z,23.70
2022-08-10T09:49:16.161Z,23.50
2022-08-10T09:52:00.137Z,23.38
2022-08-10T09:54:49.136Z,23.19
2022-08-10T09:57:46.491Z,23.12
2022-08-10T10:00:32.054Z,23.07
2022-08-10T10:03:24.012Z,22.97
2022-08-10T10:05:57.218Z,23.08
2022-08-10T10:08:30.752Z,23.21
2022-08-10T10:11:21.336Z,23.07
2022-08-10T10:14:12.211Z,22.92
2022-08-10T10:16:57.605Z,22.84
2022-08-10T10:19:50.718Z,22.98
2022-08-10T10:22:30.531Z,23.08
2022-08-10T10:25:20.726Z,23.04
2022-08-10T10:28:06.070Z,23.10
2022-08-10T10:30:46.063Z,23.27
2022-08-10T10:33:25.411Z,23.45
2022-08-10T10:35:55.962Z,23.59
2022-08-10T10:38:29.080Z,23.50
2022-08-10T10:41:56.259Z,23.33
2022-08-10T10:44:44.552Z,23.37
2022-08-10T10:47:35.170Z,23.39
2022-08-10T10:50:31.577Z,23.40
2022-08-10T10:53:02.719Z,23.33
2022-08-10T10:56:13.521Z,23.31
2022-08-10T10:58:58.976Z,23.43
2022-08-10T11:01:27.071Z,23.57
2022-08-10T11:04:24.994Z,23.62
2022-08-10T11:07:10.580Z,23.51
2022-08-10T11:10:05.014Z,23.24
2022-08-10T11:12:56.206Z,22.95
2022-08-10T11:15:47.349Z,22.92
2022-08-10T11:18:27.985Z,22.99
2022-08-10T11:21:04.533Z,23.14
2022-08-10T11:23:44.086Z,23.29
2022-08-10T11:26:25.929Z,23.43
2022-08-10T11:29:07.615Z,23.43
2022-08-10T11:31:50.785Z,23.32
2022-08-10T11:34:47.453Z,23.18
2022-08-10T11:38:32.854Z,23.06
2022-08-10T11:40:52.784Z,23.02
2022-08-10T11:43:29.148Z,23.04
2022-08-10T11:46:19.405Z,23.10
2022-08-10T11:49:04.126Z,23.05
2022-08-10T11:51:44.282Z,22.90
2022-08-10T11:54:25.852Z,22.84
2022-08-10T11:57:02.585Z,22.88
2022-08-10T11:59:58.568Z,22.91
2022-08-10T12:02:40.790Z,23.02
2022-08-10T12:05:18.100Z,23.15
2022-08-10T12:10:02.980Z,23.35
2022-08-10T12:10:44.148Z,23.36
2022-08-10T12:13:22.804Z,23.35
2022-08-10T12:16:07.833Z,23.44
2022-08-10T12:18:58.018Z,23.40
2022-08-10T12:21:33.985Z,23.22
2022-08-10T12:24:30.325Z,23.16
2022-08-10T12:27:03.217Z,23.19
2022-08-10T12:29:39.487Z,23.20
2022-08-10T12:32:35.181Z,23.22
2022-08-10T12:35:31.407Z,23.23
2022-08-10T12:38:21.522Z,23.27
2022-08-10T12:41:04.644Z,23.35
2022-08-10T12:44:06.571Z,23.41
2022-08-10T12:46:52.366Z,23.48
2022-08-10T12:49:30.299Z,23.55
2022-08-10T12:52:07.115Z,23.62
2022-08-10T12:54:38.070Z,23.67
2022-08-10T12:57:13.489Z,23.73
2022-08-10T13:00:17.520Z,23.67
2022-08-10T13:02:49.423Z,23.49
2022-08-10T13:05:20.247Z,23.35
2022-08-10T13:08:27.284Z,23.28
2022-08-10T13:11:02.307Z,23.25
2022-08-10T13:13:36.913Z,23.25
2022-08-10T13:16:06.402Z,23.25
2022-08-10T13:18:40.961Z,23.33
2022-08-10T13:21:20.666Z,23.39
2022-08-10T13:24:14.047Z,23.45
2022-08-10T13:27:26.075Z,23.49
2022-08-10T13:29:57.703Z,23.52
2022-08-10T13:32:33.750Z,23.51
2022-08-10T13:35:12.189Z,23.56
2022-08-10T13:37:45.493Z,23.62
2022-08-10T13:40:19.966Z,23.72
2022-08-10T13:42:52.157Z,23.77
2022-08-10T13:45:24.439Z,23.71
2022-08-10T13:47:56.460Z,23.64
2022-08-10T13:50:34.892Z,23.60
2022-08-10T13:53:14.686Z,23.57
2022-08-10T13:55:55.093Z,23.51
2022-08-10T13:58:34.023Z,23.48
2022-08-10T14:01:11.431Z,23.53
2022-08-10T14:03:43.499Z,23.59
2022-08-10T14:06:17.437Z,23.63
2022-08-10T14:08:49.610Z,23.61
2022-08-10T14:11:20.962Z,23.53
2022-08-10T14:13:56.987Z,23.42
2022-08-10T14:16:26.995Z,23.34
2022-08-10T14:18:59.955Z,23.32
2022-08-10T14:21:29.531Z,23.29
2022-08-10T14:23:58.412Z,23.25
2022-08-10T14:26:32.382Z,23.24
2022-08-10T14:29:18.943Z,23.30
2022-08-10T14:32:01.463Z,23.30
2022-08-10T14:36:18.493Z,23.25
2022-08-10T14:37:38.633Z,23.22
2022-08-10T14:40:19.491Z,23.19
2022-08-10T14:43:04.693Z,23.18
2022-08-10T14:45:37.975Z,23.21
2022-08-10T14:48:11.394Z,23.20
2022-08-10T14:50:55.518Z,23.15
2022-08-10T14:53:28.683Z,23.10
2022-08-10T14:56:02.042Z,23.08
2022-08-10T14:58:38.672Z,23.03
2022-08-10T15:01:08.535Z,22.99
2022-08-10T15:04:00.813Z,22.94
2022-08-10T15:06:31.974Z,22.85
2022-08-10T15:09:19.898Z,22.73
2022-08-10T15:12:15.203Z,22.58
2022-08-10T15:14:46.882Z,22.47
2022-08-10T15:17:35.287Z,22.41
2022-08-10T15:20:15.970Z,22.36
2022-08-10T15:22:55.648Z,22.36
2022-08-10T15:25:26.279Z,22.38
2022-08-10T15:28:06.481Z,22.39
2022-08-10T15:30:51.389Z,22.38
2022-08-10T15:34:03.613Z,22.40
2022-08-10T15:37:36.877Z,22.42
2022-08-10T15:40:24.116Z,22.46
2022-08-10T15:42:55.472Z,22.46
2022-08-10T15:45:26.992Z,22.43
2022-08-10T15:48:03.196Z,22.43
2022-08-10T15:50:40.285Z,22.40
2022-08-10T15:53:49.412Z,22.33
2022-08-10T15:56:28.638Z,22.23
2022-08-10T15:59:13.027Z,22.17
2022-08-10T16:02:04.594Z,22.12
2022-08-10T16:04:33.224Z,22.04
2022-08-10T16:07:12.510Z,21.98
2022-08-10T16:10:22.603Z,21.88
2022-08-10T16:12:59.800Z,21.80
2022-08-10T16:15:31.935Z,21.75
2022-08-10T16:17:59.953Z,21.69
2022-08-10T16:20:47.932Z,21.61
2022-08-10T16:23:29.751Z,21.56
2022-08-10T16:26:13.439Z,21.53
2022-08-10T16:29:02.635Z,21.49
2022-08-10T16:31:33.885Z,21.43
2022-08-10T16:34:08.121Z,21.39
2022-08-10T16:36:44.866Z,21.37
2022-08-10T16:39:58.058Z,21.35
2022-08-10T16:42:24.265Z,21.32
2022-08-10T16:45:03.026Z,21.30
2022-08-10T16:47:35.563Z,21.28
2022-08-10T16:50:09.505Z,21.28
2022-08-10T16:52:39.940Z,21.28
2022-08-10T16:55:23.672Z,21.26
2022-08-10T16:57:56.102Z,21.23
2022-08-10T17:00:25.810Z,21.20
2022-08-10T17:03:00.276Z,21.16
2022-08-10T17:06:09.554Z,21.12
2022-08-10T17:08:21.484Z,21.05
2022-08-10T17:10:55.426Z,20.98
2022-08-10T17:13:30.955Z,20.93
2022-08-10T17:16:04.497Z,20.89
2022-08-10T17:18:38.590Z,20.84
2022-08-10T17:21:18.471Z,20.79
2022-08-10T17:23:50.422Z,20.73
2022-08-10T17:26:35.397Z,20.67
2022-08-10T17:29:53.771Z,20.61
2022-08-10T17:32:18.232Z,20.53
2022-08-10T17:34:52.416Z,20.47
2022-08-10T17:37:24.689Z,20.41
2022-08-10T17:39:58.419Z,20.34
2022-08-10T17:42:27.694Z,20.30
2022-08-10T17:44:57.013Z,20.26
2022-08-10T17:47:27.778Z,20.21
2022-08-10T17:49:58.357Z,20.16
2022-08-10T17:52:32.001Z,20.12
2022-08-10T17:55:05.824Z,20.05
2022-08-10T17:57:39.480Z,19.99
2022-08-10T18:00:14.805Z,19.94
2022-08-10T18:02:46.496Z,19.87
2022-08-10T18:05:15.622Z,19.81
2022-08-10T18:07:48.005Z,19.75
2022-08-10T18:10:21.206Z,19.67
2022-08-10T18:12:55.008Z,19.59
2022-08-10T18:15:28.191Z,19.53
2022-08-10T18:18:02.812Z,19.47
2022-08-10T18:20:34.809Z,19.40
2022-08-10T18:23:05.289Z,19.32
2022-08-10T18:25:37.682Z,19.24
2022-08-10T18:28:11.668Z,19.15
2022-08-10T18:30:52.732Z,19.07
2022-08-10T18:33:28.526Z,19.01
2022-08-10T18:36:00.805Z,18.94
2022-08-10T18:38:30.872Z,18.88
2022-08-10T18:41:04.230Z,18.83
2022-08-10T18:44:06.075Z,18.77
2022-08-10T18:46:56.235Z,18.71
2022-08-10T18:49:34.258Z,18.68
2022-08-10T18:52:05.866Z,18.63
2022-08-10T18:54:45.201Z,18.60
2022-08-10T18:57:54.377Z,18.56
2022-08-10T19:00:28.412Z,18.50
2022-08-10T19:03:13.940Z,18.45
2022-08-10T19:05:58.312Z,18.39
2022-08-10T19:08:48.856Z,18.34
2022-08-10T19:11:37.724Z,18.30
2022-08-10T19:14:28.879Z,18.24
2022-08-10T19:17:16.692Z,18.20
2022-08-10T19:19:51.024Z,18.15
2022-08-10T19:22:34.564Z,18.10
2022-08-10T19:26:36.452Z,18.07
2022-08-10T19:28:31.070Z,18.01
2022-08-10T19:31:04.956Z,17.99
2022-08-10T19:34:11.835Z,17.96
2022-08-10T19:37:15.649Z,17.89
2022-08-10T19:40:04.101Z,17.83
2022-08-10T19:42:47.111Z,17.79
2022-08-10T19:46:01.531Z,17.75
2022-08-10T19:48:41.223Z,17.70
2022-08-10T19:51:21.378Z,17.66
2022-08-10T19:54:26.817Z,17.62
2022-08-10T19:56:55.734Z,17.57
2022-08-10T20:00:18.042Z,17.54
2022-08-10T20:02:23.392Z,17.50
2022-08-10T20:05:30.121Z,17.45
2022-08-10T20:08:17.767Z,17.42
2022-08-10T20:11:11.360Z,17.39
2022-08-10T20:14:08.193Z,17.36
2022-08-10T20:16:51.347Z,17.33
2022-08-10T20:19:53.876Z,17.33
2022-08-10T20:22:29.198Z,17.31
2022-08-10T20:25:12.652Z,17.28
2022-08-10T20:27:59.267Z,17.27
2022-08-10T20:30:48.221Z,17.23
2022-08-10T20:33:34.665Z,17.20
2022-08-10T20:36:08.639Z,17.17
2022-08-10T20:39:03.737Z,17.15
2022-08-10T20:42:05.296Z,17.11
2022-08-10T20:44:50.953Z,17.08
2022-08-10T20:47:54.529Z,17.02
2022-08-10T20:50:58.989Z,16.95
2022-08-10T20:53:32.060Z,16.92
2022-08-10T20:56:00.535Z,16.87
2022-08-10T20:58:53.267Z,16.84
2022-08-10T21:02:11.760Z,16.81
2022-08-10T21:05:14.678Z,16.77
2022-08-10T21:08:09.505Z,16.74
2022-08-10T21:10:46.902Z,16.69
2022-08-10T21:13:41.261Z,16.64
2022-08-10T21:16:20.322Z,16.60
2022-08-10T21:19:23.164Z,16.57
2022-08-10T21:22:12.790Z,16.55
2022-08-10T21:25:03.403Z,16.53
2022-08-10T21:27:55.281Z,16.51
2022-08-10T21:30:38.803Z,16.48
2022-08-10T21:33:17.661Z,16.47
2022-08-10T21:36:18.542Z,16.43
2022-08-10T21:39:07.544Z,16.40
2022-08-10T21:45:59.206Z,16.32
2022-08-10T21:48:57.372Z,16.30
2022-08-10T21:52:21.932Z,16.27
2022-08-10T21:55:14.754Z,16.25
2022-08-10T21:58:23.689Z,16.25
2022-08-10T22:01:39.125Z,16.24
2022-08-10T22:04:26.578Z,16.22
2022-08-10T22:07:19.343Z,16.21
2022-08-10T22:10:11.495Z,16.18
2022-08-10T22:13:08.446Z,16.15
2022-08-10T22:16:10.839Z,16.13
2022-08-10T22:19:03.756Z,16.10
2022-08-10T22:22:28.806Z,16.07
2022-08-10T22:25:37.368Z,16.05
2022-08-10T22:28:24.246Z,16.06
2022-08-10T22:31:25.113Z,16.38
2022-08-10T22:31:32.503Z,16.04
2022-08-10T22:34:41.894Z,16.01
2022-08-10T22:37:40.366Z,15.98
2022-08-10T22:40:35.236Z,15.96
2022-08-10T22:43:36.415Z,15.93
2022-08-10T22:46:34.215Z,15.91
2022-08-10T22:49:02.636Z,15.90
2022-08-10T22:51:58.047Z,15.87
2022-08-10T22:55:03.635Z,15.86
2022-08-10T22:57:50.416Z,15.82
2022-08-10T23:00:30.702Z,15.81
2022-08-10T23:03:24.691Z,15.79
2022-08-10T23:06:00.505Z,15.79
2022-08-10T23:08:40.982Z,15.79
2022-08-10T23:11:14.656Z,15.78
2022-08-10T23:13:46.289Z,15.77
2022-08-10T23:16:59.942Z,15.75
2022-08-10T23:19:35.268Z,15.73
2022-08-10T23:22:08.020Z,15.72
2022-08-10T23:24:51.306Z,15.70
2022-08-10T23:27:38.313Z,15.69
2022-08-10T23:30:18.039Z,15.67
2022-08-10T23:33:06.712Z,15.66
2022-08-10T23:36:13.065Z,15.63
2022-08-10T23:38:31.753Z,15.61
2022-08-10T23:41:04.638Z,15.60
2022-08-10T23:44:00.802Z,15.57
2022-08-10T23:46:29.485Z,15.55
2022-08-10T23:49:01.562Z,15.54
2022-08-10T23:51:54.780Z,15.51
2022-08-10T23:54:22.526Z,15.48
2022-08-10T23:56:56.710Z,15.47
2022-08-10T23:59:32.094Z,15.45
